sensor_id;sensor_type;location;lat;lon;timestamp;pressure;altitude;pressure_sealevel;temperature;humidity
8575;BME280;4325;42.520;27.448;2023-09-19T00:00:18;101380.31;;;19.23;100.00
8575;BME280;4325;42.520;27.448;2023-09-19T00:02:46;101369.22;;;19.23;100.00
8575;BME280;4325;42.520;27.448;2023-09-19T00:05:13;101371.81;;;19.20;100.00
8575;BME280;4325;42.520;27.448;2023-09-19T00:07:40;101368.84;;;19.16;100.00
8575;BME280;4325;42.520;27.448;2023-09-19T00:10:08;101369.06;;;19.06;100.00
8575;BME280;4325;42.520;27.448;2023-09-19T00:12:36;101368.06;;;19.02;100.00
8575;BME280;4325;42.520;27.448;2023-09-19T00:15:04;101369.50;;;18.99;100.00
8575;BME280;4325;42.520;27.448;2023-09-19T00:17:33;101369.94;;;18.93;100.00
8575;BME280;4325;42.520;27.448;2023-09-19T00:20:03;101368.63;;;18.90;100.00
8575;BME280;4325;42.520;27.448;2023-09-19T00:22:32;101367.78;;;18.90;100.00
8575;BME280;4325;42.520;27.448;2023-09-19T00:24:59;101364.00;;;18.86;100.00
8575;BME280;4325;42.520;27.448;2023-09-19T00:27:28;101363.56;;;18.79;100.00
8575;BME280;4325;42.520;27.448;2023-09-19T00:29:55;101363.19;;;18.72;100.00
8575;BME280;4325;42.520;27.448;2023-09-19T00:32:22;101357.44;;;18.68;100.00
8575;BME280;4325;42.520;27.448;2023-09-19T00:34:50;101348.19;;;18.73;100.00
8575;BME280;4325;42.520;27.448;2023-09-19T00:37:17;101350.47;;;18.71;100.00
8575;BME280;4325;42.520;27.448;2023-09-19T00:39:44;101350.56;;;18.66;100.00
8575;BME280;4325;42.520;27.448;2023-09-19T00:42:18;101351.69;;;18.65;100.00
8575;BME280;4325;42.520;27.448;2023-09-19T00:44:46;101346.34;;;18.68;100.00
8575;BME280;4325;42.520;27.448;2023-09-19T00:47:13;101352.19;;;18.67;100.00
8575;BME280;4325;42.520;27.448;2023-09-19T00:49:43;101347.97;;;18.69;100.00
8575;BME280;4325;42.520;27.448;2023-09-19T00:52:12;101346.16;;;18.65;100.00
8575;BME280;4325;42.520;27.448;2023-09-19T00:54:39;101351.69;;;18.65;100.00
8575;BME280;4325;42.520;27.448;2023-09-19T00:57:06;101354.84;;;18.72;100.00
8575;BME280;4325;42.520;27.448;2023-09-19T00:59:34;101353.13;;;18.76;100.00
8575;BME280;4325;42.520;27.448;2023-09-19T01:02:02;101353.53;;;18.83;100.00
8575;BME280;4325;42.520;27.448;2023-09-19T01:04:29;101352.56;;;18.87;100.00
8575;BME280;4325;42.520;27.448;2023-09-19T01:06:57;101345.09;;;18.88;100.00
8575;BME280;4325;42.520;27.448;2023-09-19T01:09:26;101346.31;;;18.82;100.00
8575;BME280;4325;42.520;27.448;2023-09-19T01:11:58;101339.75;;;18.78;100.00
8575;BME280;4325;42.520;27.448;2023-09-19T01:14:33;101350.84;;;18.78;100.00
8575;BME280;4325;42.520;27.448;2023-09-19T01:17:05;101344.81;;;18.76;100.00
8575;BME280;4325;42.520;27.448;2023-09-19T01:20:04;101338.75;;;18.74;100.00
8575;BME280;4325;42.520;27.448;2023-09-19T01:22:42;101344.09;;;18.70;100.00
8575;BME280;4325;42.520;27.448;2023-09-19T01:28:34;101340.59;;;18.65;100.00
8575;BME280;4325;42.520;27.448;2023-09-19T01:31:10;101338.47;;;18.62;100.00
8575;BME280;4325;42.520;27.448;2023-09-19T01:33:58;101333.44;;;18.64;100.00
8575;BME280;4325;42.520;27.448;2023-09-19T01:36:27;101335.38;;;18.63;100.00
8575;BME280;4325;42.520;27.448;2023-09-19T01:38:55;101335.56;;;18.67;100.00
8575;BME280;4325;42.520;27.448;2023-09-19T01:41:26;101328.88;;;18.68;100.00
8575;BME280;4325;42.520;27.448;2023-09-19T01:44:00;101329.38;;;18.70;100.00
8575;BME280;4325;42.520;27.448;2023-09-19T01:46:34;101336.88;;;18.83;100.00
8575;BME280;4325;42.520;27.448;2023-09-19T01:49:13;101331.59;;;18.95;100.00
8575;BME280;4325;42.520;27.448;2023-09-19T01:51:48;101328.59;;;19.05;100.00
8575;BME280;4325;42.520;27.448;2023-09-19T01:54:24;101331.63;;;19.17;100.00
8575;BME280;4325;42.520;27.448;2023-09-19T01:56:57;101343.47;;;19.31;100.00
8575;BME280;4325;42.520;27.448;2023-09-19T01:59:34;101345.84;;;19.38;100.00
8575;BME280;4325;42.520;27.448;2023-09-19T02:02:04;101354.88;;;19.43;100.00
8575;BME280;4325;42.520;27.448;2023-09-19T02:04:34;101345.78;;;19.51;100.00
8575;BME280;4325;42.520;27.448;2023-09-19T02:07:02;101338.66;;;19.59;100.00
8575;BME280;4325;42.520;27.448;2023-09-19T02:09:31;101342.09;;;19.64;100.00
8575;BME280;4325;42.520;27.448;2023-09-19T02:11:58;101347.66;;;19.64;100.00
8575;BME280;4325;42.520;27.448;2023-09-19T02:14:43;101350.19;;;19.52;100.00
8575;BME280;4325;42.520;27.448;2023-09-19T02:17:11;101357.66;;;19.43;100.00
8575;BME280;4325;42.520;27.448;2023-09-19T02:19:38;101351.72;;;19.36;100.00
8575;BME280;4325;42.520;27.448;2023-09-19T02:22:07;101354.84;;;19.21;100.00
8575;BME280;4325;42.520;27.448;2023-09-19T02:24:36;101353.63;;;19.13;100.00
8575;BME280;4325;42.520;27.448;2023-09-19T02:27:04;101351.78;;;19.09;100.00
8575;BME280;4325;42.520;27.448;2023-09-19T02:29:31;101349.63;;;19.06;100.00
8575;BME280;4325;42.520;27.448;2023-09-19T02:32:00;101341.53;;;19.09;100.00
8575;BME280;4325;42.520;27.448;2023-09-19T02:34:29;101354.44;;;19.14;100.00
8575;BME280;4325;42.520;27.448;2023-09-19T02:36:56;101351.56;;;19.19;100.00
8575;BME280;4325;42.520;27.448;2023-09-19T02:39:23;101341.44;;;19.23;100.00
8575;BME280;4325;42.520;27.448;2023-09-19T02:41:50;101348.72;;;19.33;100.00
8575;BME280;4325;42.520;27.448;2023-09-19T02:44:17;101351.72;;;19.36;100.00
8575;BME280;4325;42.520;27.448;2023-09-19T02:46:45;101349.38;;;19.30;100.00
8575;BME280;4325;42.520;27.448;2023-09-19T02:49:12;101350.59;;;19.24;100.00
8575;BME280;4325;42.520;27.448;2023-09-19T02:51:41;101341.28;;;19.20;100.00
8575;BME280;4325;42.520;27.448;2023-09-19T02:54:08;101349.03;;;19.09;100.00
8575;BME280;4325;42.520;27.448;2023-09-19T02:56:35;101353.19;;;18.98;100.00
8575;BME280;4325;42.520;27.448;2023-09-19T02:59:02;101349.47;;;18.89;100.00
8575;BME280;4325;42.520;27.448;2023-09-19T03:01:29;101346.31;;;18.82;100.00
8575;BME280;4325;42.520;27.448;2023-09-19T03:03:57;101334.81;;;18.75;100.00
8575;BME280;4325;42.520;27.448;2023-09-19T03:06:25;101338.09;;;18.77;100.00
8575;BME280;4325;42.520;27.448;2023-09-19T03:08:53;101345.31;;;18.78;100.00
8575;BME280;4325;42.520;27.448;2023-09-19T03:11:21;101333.81;;;18.71;100.00
8575;BME280;4325;42.520;27.448;2023-09-19T03:13:51;101344.09;;;18.70;100.00
8575;BME280;4325;42.520;27.448;2023-09-19T03:16:19;101342.47;;;18.56;100.00
8575;BME280;4325;42.520;27.448;2023-09-19T03:18:47;101343.78;;;18.44;100.00
8575;BME280;4325;42.520;27.448;2023-09-19T03:21:14;101341.75;;;18.36;100.00
8575;BME280;4325;42.520;27.448;2023-09-19T03:23:42;101347.78;;;18.38;100.00
8575;BME280;4325;42.520;27.448;2023-09-19T03:26:12;101339.97;;;18.40;100.00
8575;BME280;4325;42.520;27.448;2023-09-19T03:28:41;101350.25;;;18.40;100.00
8575;BME280;4325;42.520;27.448;2023-09-19T03:31:08;101338.34;;;18.39;100.00
8575;BME280;4325;42.520;27.448;2023-09-19T03:33:36;101343.25;;;18.42;100.00
8575;BME280;4325;42.520;27.448;2023-09-19T03:36:04;101341.63;;;18.41;100.00
8575;BME280;4325;42.520;27.448;2023-09-19T03:38:31;101347.63;;;18.49;100.00
8575;BME280;4325;42.520;27.448;2023-09-19T03:40:59;101341.47;;;18.52;100.00
8575;BME280;4325;42.520;27.448;2023-09-19T03:43:28;101345.75;;;18.58;100.00
8575;BME280;4325;42.520;27.448;2023-09-19T03:45:55;101354.69;;;18.68;100.00
8575;BME280;4325;42.520;27.448;2023-09-19T03:48:22;101351.69;;;18.65;100.00
8575;BME280;4325;42.520;27.448;2023-09-19T03:50:49;101351.50;;;18.61;100.00
8575;BME280;4325;42.520;27.448;2023-09-19T03:53:16;101342.03;;;18.62;100.00
8575;BME280;4325;42.520;27.448;2023-09-19T03:55:44;101348.91;;;18.65;100.00
8575;BME280;4325;42.520;27.448;2023-09-19T03:58:12;101350.88;;;18.64;100.00
8575;BME280;4325;42.520;27.448;2023-09-19T04:00:41;101347.41;;;18.59;100.00
8575;BME280;4325;42.520;27.448;2023-09-19T04:03:08;101354.28;;;18.61;100.00
8575;BME280;4325;42.520;27.448;2023-09-19T04:05:44;101352.44;;;18.57;100.00
8575;BME280;4325;42.520;27.448;2023-09-19T04:08:11;101352.84;;;18.64;100.00
8575;BME280;4325;42.520;27.448;2023-09-19T04:10:38;101356.41;;;18.64;100.00
8575;BME280;4325;42.520;27.448;2023-09-19T04:13:08;101364.44;;;18.66;100.00
8575;BME280;4325;42.520;27.448;2023-09-19T04:15:35;101360.00;;;18.65;100.00
8575;BME280;4325;42.520;27.448;2023-09-19T04:18:04;101356.00;;;18.71;100.00
8575;BME280;4325;42.520;27.448;2023-09-19T04:20:31;101360.72;;;18.70;100.00
8575;BME280;4325;42.520;27.448;2023-09-19T04:22:58;101359.50;;;18.63;100.00
8575;BME280;4325;42.520;27.448;2023-09-19T04:25:26;101347.91;;;18.61;100.00
8575;BME280;4325;42.520;27.448;2023-09-19T04:27:53;101350.19;;;18.59;100.00
8575;BME280;4325;42.520;27.448;2023-09-19T04:30:20;101358.38;;;18.64;100.00
8575;BME280;4325;42.520;27.448;2023-09-19T04:32:47;101345.75;;;18.58;100.00
8575;BME280;4325;42.520;27.448;2023-09-19T04:35:17;101336.69;;;18.66;100.00
8575;BME280;4325;42.520;27.448;2023-09-19T04:37:44;101342.66;;;18.73;100.00
8575;BME280;4325;42.520;27.448;2023-09-19T04:40:12;101343.47;;;18.73;100.00
8575;BME280;4325;42.520;27.448;2023-09-19T04:42:40;101349.84;;;18.74;100.00
8575;BME280;4325;42.520;27.448;2023-09-19T04:45:08;101342.66;;;18.73;100.00
8575;BME280;4325;42.520;27.448;2023-09-19T04:47:36;101350.66;;;18.74;100.00
8575;BME280;4325;42.520;27.448;2023-09-19T04:50:06;101348.41;;;18.76;100.00
8575;BME280;4325;42.520;27.448;2023-09-19T04:52:35;101348.47;;;18.85;100.00
8575;BME280;4325;42.520;27.448;2023-09-19T04:55:02;101338.81;;;18.82;100.00
8575;BME280;4325;42.520;27.448;2023-09-19T04:57:30;101342.38;;;18.96;100.00
8575;BME280;4325;42.520;27.448;2023-09-19T04:59:57;101348.97;;;19.00;100.00
8575;BME280;4325;42.520;27.448;2023-09-19T05:02:24;101341.31;;;19.06;100.00
8575;BME280;4325;42.520;27.448;2023-09-19T05:04:51;101338.41;;;19.11;100.00
8575;BME280;4325;42.520;27.448;2023-09-19T05:07:19;101345.06;;;19.24;100.00
8575;BME280;4325;42.520;27.448;2023-09-19T05:09:48;101347.59;;;19.34;100.00
8575;BME280;4325;42.520;27.448;2023-09-19T05:12:15;101341.81;;;19.44;100.00
8575;BME280;4325;42.520;27.448;2023-09-19T05:14:45;101345.25;;;19.49;100.00
8575;BME280;4325;42.520;27.448;2023-09-19T05:17:13;101350.66;;;19.46;100.00
8575;BME280;4325;42.520;27.448;2023-09-19T05:19:42;101349.44;;;19.38;100.00
8575;BME280;4325;42.520;27.448;2023-09-19T05:22:09;101341.63;;;19.40;100.00
8575;BME280;4325;42.520;27.448;2023-09-19T05:24:37;101342.25;;;19.37;100.00
8575;BME280;4325;42.520;27.448;2023-09-19T05:27:06;101346.75;;;19.47;100.00
8575;BME280;4325;42.520;27.448;2023-09-19T05:29:33;101344.38;;;19.62;100.00
8575;BME280;4325;42.520;27.448;2023-09-19T05:32:00;101340.66;;;19.67;100.00
8575;BME280;4325;42.520;27.448;2023-09-19T05:34:27;101340.59;;;19.81;100.00
8575;BME280;4325;42.520;27.448;2023-09-19T05:36:55;101340.94;;;19.88;100.00
8575;BME280;4325;42.520;27.448;2023-09-19T05:39:22;101350.75;;;19.94;100.00
8575;BME280;4325;42.520;27.448;2023-09-19T05:41:49;101350.50;;;20.04;100.00
8575;BME280;4325;42.520;27.448;2023-09-19T05:44:17;101349.84;;;20.07;100.00
8575;BME280;4325;42.520;27.448;2023-09-19T05:46:44;101348.56;;;20.13;100.00
8575;BME280;4325;42.520;27.448;2023-09-19T05:49:13;101346.03;;;20.25;100.00
8575;BME280;4325;42.520;27.448;2023-09-19T05:51:41;101343.44;;;20.37;100.00
8575;BME280;4325;42.520;27.448;2023-09-19T05:54:08;101350.53;;;20.43;100.00
8575;BME280;4325;42.520;27.448;2023-09-19T05:56:36;101338.00;;;20.23;100.00
8575;BME280;4325;42.520;27.448;2023-09-19T05:59:03;101344.75;;;20.31;100.00
8575;BME280;4325;42.520;27.448;2023-09-19T06:01:32;101334.50;;;20.49;100.00
8575;BME280;4325;42.520;27.448;2023-09-19T06:03:59;101339.91;;;20.62;100.00
8575;BME280;4325;42.520;27.448;2023-09-19T06:06:26;101336.34;;;20.70;100.00
8575;BME280;4325;42.520;27.448;2023-09-19T06:08:53;101338.97;;;20.75;100.00
8575;BME280;4325;42.520;27.448;2023-09-19T06:11:21;101336.69;;;20.77;100.00
8575;BME280;4325;42.520;27.448;2023-09-19T06:13:51;101349.13;;;20.88;100.00
8575;BME280;4325;42.520;27.448;2023-09-19T06:16:18;101341.63;;;20.97;100.00
8575;BME280;4325;42.520;27.448;2023-09-19T06:18:47;101337.72;;;21.16;100.00
8575;BME280;4325;42.520;27.448;2023-09-19T06:21:15;101344.09;;;21.25;100.00
8575;BME280;4325;42.520;27.448;2023-09-19T06:23:42;101346.06;;;21.16;100.00
8575;BME280;4325;42.520;27.448;2023-09-19T06:26:09;101341.47;;;21.11;100.00
8575;BME280;4325;42.520;27.448;2023-09-19T06:28:36;101347.88;;;21.12;100.00
8575;BME280;4325;42.520;27.448;2023-09-19T06:31:03;101357.22;;;21.16;100.00
8575;BME280;4325;42.520;27.448;2023-09-19T06:33:35;101355.75;;;21.27;100.00
8575;BME280;4325;42.520;27.448;2023-09-19T06:36:05;101355.88;;;21.30;100.00
8575;BME280;4325;42.520;27.448;2023-09-19T06:38:32;101352.59;;;21.37;100.00
8575;BME280;4325;42.520;27.448;2023-09-19T06:41:05;101358.69;;;21.39;100.00
8575;BME280;4325;42.520;27.448;2023-09-19T06:43:34;101364.06;;;21.52;100.00
8575;BME280;4325;42.520;27.448;2023-09-19T06:46:01;101367.16;;;21.68;100.00
8575;BME280;4325;42.520;27.448;2023-09-19T06:48:28;101372.41;;;21.78;100.00
8575;BME280;4325;42.520;27.448;2023-09-19T06:50:56;101372.34;;;21.95;100.00
8575;BME280;4325;42.520;27.448;2023-09-19T06:53:25;101369.25;;;21.97;100.00
8575;BME280;4325;42.520;27.448;2023-09-19T06:55:52;101378.88;;;22.16;100.00
8575;BME280;4325;42.520;27.448;2023-09-19T06:58:19;101376.50;;;22.35;100.00
8575;BME280;4325;42.520;27.448;2023-09-19T07:00:46;101378.91;;;22.46;100.00
8575;BME280;4325;42.520;27.448;2023-09-19T07:03:15;101382.59;;;22.67;100.00
8575;BME280;4325;42.520;27.448;2023-09-19T07:05:44;101380.16;;;22.86;100.00
8575;BME280;4325;42.520;27.448;2023-09-19T07:08:11;101377.72;;;23.05;100.00
8575;BME280;4325;42.520;27.448;2023-09-19T07:10:40;101387.06;;;23.38;100.00
8575;BME280;4325;42.520;27.448;2023-09-19T07:13:08;101383.59;;;24.07;100.00
8575;BME280;4325;42.520;27.448;2023-09-19T07:15:37;101380.06;;;25.19;100.00
8575;BME280;4325;42.520;27.448;2023-09-19T07:18:07;101375.56;;;26.29;92.70
8575;BME280;4325;42.520;27.448;2023-09-19T07:20:36;101389.03;;;28.61;75.45
8575;BME280;4325;42.520;27.448;2023-09-19T07:23:04;101378.75;;;30.83;58.93
8575;BME280;4325;42.520;27.448;2023-09-19T07:25:31;101377.34;;;32.17;50.36
8575;BME280;4325;42.520;27.448;2023-09-19T07:28:00;101388.69;;;32.91;47.37
8575;BME280;4325;42.520;27.448;2023-09-19T07:30:27;101386.06;;;34.29;42.96
8575;BME280;4325;42.520;27.448;2023-09-19T07:32:54;101385.53;;;36.48;38.37
8575;BME280;4325;42.520;27.448;2023-09-19T07:35:21;101389.78;;;38.36;34.77
8575;BME280;4325;42.520;27.448;2023-09-19T07:37:48;101398.09;;;39.24;32.95
8575;BME280;4325;42.520;27.448;2023-09-19T07:40:17;101395.03;;;40.73;29.54
8575;BME280;4325;42.520;27.448;2023-09-19T07:42:44;101391.69;;;42.26;28.01
8575;BME280;4325;42.520;27.448;2023-09-19T07:45:13;101391.50;;;42.88;26.17
8575;BME280;4325;42.520;27.448;2023-09-19T07:47:44;101390.25;;;43.25;25.93
8575;BME280;4325;42.520;27.448;2023-09-19T07:50:12;101389.25;;;43.73;24.64
8575;BME280;4325;42.520;27.448;2023-09-19T07:52:39;101397.94;;;43.10;24.80
8575;BME280;4325;42.520;27.448;2023-09-19T07:55:06;101397.47;;;43.02;25.14
8575;BME280;4325;42.520;27.448;2023-09-19T07:57:36;101393.66;;;44.34;24.42
8575;BME280;4325;42.520;27.448;2023-09-19T08:00:04;101388.91;;;45.17;23.09
8575;BME280;4325;42.520;27.448;2023-09-19T08:02:35;101393.03;;;45.40;22.01
8575;BME280;4325;42.520;27.448;2023-09-19T08:05:04;101390.78;;;45.20;22.07
8575;BME280;4325;42.520;27.448;2023-09-19T08:07:35;101386.38;;;43.28;23.85
8575;BME280;4325;42.520;27.448;2023-09-19T08:10:03;101376.97;;;41.19;26.55
8575;BME280;4325;42.520;27.448;2023-09-19T08:12:33;101382.25;;;40.87;26.79
8575;BME280;4325;42.520;27.448;2023-09-19T08:15:01;101390.84;;;42.65;25.81
8575;BME280;4325;42.520;27.448;2023-09-19T08:17:29;101378.22;;;44.05;24.00
8575;BME280;4325;42.520;27.448;2023-09-19T08:19:57;101384.16;;;45.58;22.58
8575;BME280;4325;42.520;27.448;2023-09-19T08:22:24;101383.91;;;46.55;21.58
8575;BME280;4325;42.520;27.448;2023-09-19T08:24:51;101377.69;;;47.02;20.88
8575;BME280;4325;42.520;27.448;2023-09-19T08:27:18;101376.72;;;47.88;20.61
8575;BME280;4325;42.520;27.448;2023-09-19T08:29:46;101374.41;;;48.76;19.78
8575;BME280;4325;42.520;27.448;2023-09-19T08:32:13;101372.47;;;49.21;18.96
8575;BME280;4325;42.520;27.448;2023-09-19T08:34:40;101373.47;;;49.02;18.56
8575;BME280;4325;42.520;27.448;2023-09-19T08:37:09;101366.47;;;49.58;18.77
8575;BME280;4325;42.520;27.448;2023-09-19T08:39:35;101361.94;;;49.68;17.75
8575;BME280;4325;42.520;27.448;2023-09-19T08:42:06;101358.84;;;50.68;17.83
8575;BME280;4325;42.520;27.448;2023-09-19T08:44:36;101354.97;;;48.09;18.43
8575;BME280;4325;42.520;27.448;2023-09-19T08:47:09;101351.78;;;44.77;21.20
8575;BME280;4325;42.520;27.448;2023-09-19T08:49:43;101348.44;;;44.55;21.24
8575;BME280;4325;42.520;27.448;2023-09-19T08:52:20;101347.78;;;45.13;21.19
8575;BME280;4325;42.520;27.448;2023-09-19T08:54:51;101348.72;;;45.92;20.29
8575;BME280;4325;42.520;27.448;2023-09-19T08:57:19;101333.66;;;46.23;20.18
8575;BME280;4325;42.520;27.448;2023-09-19T08:59:48;101332.50;;;46.95;19.83
8575;BME280;4325;42.520;27.448;2023-09-19T09:02:16;101336.28;;;48.63;18.66
8575;BME280;4325;42.520;27.448;2023-09-19T09:04:45;101339.31;;;48.91;17.75
8575;BME280;4325;42.520;27.448;2023-09-19T09:07:14;101330.00;;;47.86;18.58
8575;BME280;4325;42.520;27.448;2023-09-19T09:09:42;101334.22;;;46.41;19.77
8575;BME280;4325;42.520;27.448;2023-09-19T09:12:11;101325.56;;;45.92;20.66
8575;BME280;4325;42.520;27.448;2023-09-19T09:14:39;101321.63;;;47.10;19.69
8575;BME280;4325;42.520;27.448;2023-09-19T09:17:07;101325.22;;;48.78;18.90
8575;BME280;4325;42.520;27.448;2023-09-19T09:19:34;101319.38;;;48.62;18.14
8575;BME280;4325;42.520;27.448;2023-09-19T09:22:08;101325.84;;;48.93;18.49
8575;BME280;4325;42.520;27.448;2023-09-19T09:24:37;101310.84;;;49.50;18.16
8575;BME280;4325;42.520;27.448;2023-09-19T09:27:06;101320.19;;;50.51;17.24
8575;BME280;4325;42.520;27.448;2023-09-19T09:29:44;101320.53;;;51.34;16.75
8575;BME280;4325;42.520;27.448;2023-09-19T09:32:23;101317.28;;;50.62;17.53
8575;BME280;4325;42.520;27.448;2023-09-19T09:34:52;101320.78;;;51.01;17.43
8575;BME280;4325;42.520;27.448;2023-09-19T09:37:20;101317.72;;;52.55;16.42
8575;BME280;4325;42.520;27.448;2023-09-19T09:39:53;101323.31;;;52.53;16.07
8575;BME280;4325;42.520;27.448;2023-09-19T09:42:32;101325.19;;;52.32;16.20
8575;BME280;4325;42.520;27.448;2023-09-19T09:45:14;101314.94;;;52.44;16.27
8575;BME280;4325;42.520;27.448;2023-09-19T09:47:42;101315.03;;;51.31;16.82
8575;BME280;4325;42.520;27.448;2023-09-19T09:50:24;101316.69;;;51.80;16.64
8575;BME280;4325;42.520;27.448;2023-09-19T09:52:55;101314.13;;;51.41;16.99
8575;BME280;4325;42.520;27.448;2023-09-19T09:55:57;101316.19;;;50.65;17.20
8575;BME280;4325;42.520;27.448;2023-09-19T09:58:25;101311.13;;;49.91;17.74
8575;BME280;4325;42.520;27.448;2023-09-19T10:00:54;101302.31;;;48.91;18.76
8575;BME280;4325;42.520;27.448;2023-09-19T10:03:31;101297.84;;;49.46;18.28
8575;BME280;4325;42.520;27.448;2023-09-19T10:06:00;101296.53;;;49.80;18.03
8575;BME280;4325;42.520;27.448;2023-09-19T10:08:34;101294.88;;;51.27;17.39
8575;BME280;4325;42.520;27.448;2023-09-19T10:11:15;101294.47;;;52.44;16.04
8575;BME280;4325;42.520;27.448;2023-09-19T10:13:44;101289.16;;;52.24;16.19
8575;BME280;4325;42.520;27.448;2023-09-19T10:16:13;101279.00;;;51.53;17.15
8575;BME280;4325;42.520;27.448;2023-09-19T10:18:42;101271.44;;;50.51;17.79
8575;BME280;4325;42.520;27.448;2023-09-19T10:21:10;101268.25;;;49.53;18.24
8575;BME280;4325;42.520;27.448;2023-09-19T10:23:38;101259.53;;;49.25;18.79
8575;BME280;4325;42.520;27.448;2023-09-19T10:26:08;101257.69;;;50.46;18.05
8575;BME280;4325;42.520;27.448;2023-09-19T10:28:37;101252.78;;;50.13;17.46
8575;BME280;4325;42.520;27.448;2023-09-19T10:31:05;101253.53;;;50.31;17.86
8575;BME280;4325;42.520;27.448;2023-09-19T10:33:36;101256.81;;;51.09;17.31
8575;BME280;4325;42.520;27.448;2023-09-19T10:36:05;101246.09;;;52.25;16.57
8575;BME280;4325;42.520;27.448;2023-09-19T10:38:33;101249.88;;;52.38;16.44
8575;BME280;4325;42.520;27.448;2023-09-19T10:41:01;101241.34;;;52.78;16.18
8575;BME280;4325;42.520;27.448;2023-09-19T10:43:30;101246.09;;;52.43;16.29
8575;BME280;4325;42.520;27.448;2023-09-19T10:46:02;101242.97;;;52.17;16.51
8575;BME280;4325;42.520;27.448;2023-09-19T10:48:31;101242.78;;;52.34;15.78
8575;BME280;4325;42.520;27.448;2023-09-19T10:51:07;101227.69;;;49.94;17.94
8575;BME280;4325;42.520;27.448;2023-09-19T10:53:43;101228.22;;;50.55;17.81
8575;BME280;4325;42.520;27.448;2023-09-19T10:56:17;101223.22;;;51.26;17.23
8575;BME280;4325;42.520;27.448;2023-09-19T10:58:46;101221.41;;;52.20;16.55
8575;BME280;4325;42.520;27.448;2023-09-19T11:01:15;101216.53;;;51.85;16.28
8575;BME280;4325;42.520;27.448;2023-09-19T11:03:44;101217.56;;;51.88;16.65
8575;BME280;4325;42.520;27.448;2023-09-19T11:06:16;101219.84;;;50.41;17.45
8575;BME280;4325;42.520;27.448;2023-09-19T11:09:05;101208.28;;;51.35;16.95
8575;BME280;4325;42.520;27.448;2023-09-19T11:11:46;101215.59;;;52.39;16.39
8575;BME280;4325;42.520;27.448;2023-09-19T11:14:32;101212.91;;;52.22;16.34
8575;BME280;4325;42.520;27.448;2023-09-19T11:20:23;101202.25;;;51.58;16.63
8575;BME280;4325;42.520;27.448;2023-09-19T11:23:22;101204.66;;;49.90;17.66
8575;BME280;4325;42.520;27.448;2023-09-19T11:25:50;101190.19;;;49.29;18.22
8575;BME280;4325;42.520;27.448;2023-09-19T11:28:35;101186.59;;;50.08;17.56
8575;BME280;4325;42.520;27.448;2023-09-19T11:34:53;101200.41;;;51.79;16.64
8575;BME280;4325;42.520;27.448;2023-09-19T11:38:02;101189.09;;;49.66;17.84
8575;BME280;4325;42.520;27.448;2023-09-19T11:40:45;101189.81;;;50.57;17.98
8575;BME280;4325;42.520;27.448;2023-09-19T11:43:30;101183.50;;;52.15;16.58
8575;BME280;4325;42.520;27.448;2023-09-19T11:46:06;101181.88;;;51.46;16.92
8575;BME280;4325;42.520;27.448;2023-09-19T11:48:33;101179.16;;;51.78;16.90
8575;BME280;4325;42.520;27.448;2023-09-19T11:51:11;101185.09;;;52.72;16.17
8575;BME280;4325;42.520;27.448;2023-09-19T11:53:46;101185.97;;;53.30;15.66
8575;BME280;4325;42.520;27.448;2023-09-19T11:56:16;101184.72;;;51.82;16.50
8575;BME280;4325;42.520;27.448;2023-09-19T11:58:44;101183.25;;;50.40;17.50
8575;BME280;4325;42.520;27.448;2023-09-19T12:01:13;101184.63;;;49.59;18.49
8575;BME280;4325;42.520;27.448;2023-09-19T12:03:47;101164.38;;;48.17;19.13
8575;BME280;4325;42.520;27.448;2023-09-19T12:06:15;101158.72;;;47.43;19.79
8575;BME280;4325;42.520;27.448;2023-09-19T12:08:44;101158.44;;;47.10;20.06
8575;BME280;4325;42.520;27.448;2023-09-19T12:11:14;101151.22;;;47.00;20.30
8575;BME280;4325;42.520;27.448;2023-09-19T12:13:43;101156.13;;;48.10;19.63
8575;BME280;4325;42.520;27.448;2023-09-19T12:16:14;101154.94;;;49.66;18.52
8575;BME280;4325;42.520;27.448;2023-09-19T12:18:43;101152.41;;;50.96;17.43
8575;BME280;4325;42.520;27.448;2023-09-19T12:21:25;101157.91;;;51.54;17.03
8575;BME280;4325;42.520;27.448;2023-09-19T12:24:06;101161.22;;;52.12;16.23
8575;BME280;4325;42.520;27.448;2023-09-19T12:26:41;101159.72;;;51.62;16.34
8575;BME280;4325;42.520;27.448;2023-09-19T12:29:13;101155.84;;;50.07;17.45
8575;BME280;4325;42.520;27.448;2023-09-19T12:31:53;101153.50;;;48.06;18.12
8575;BME280;4325;42.520;27.448;2023-09-19T12:34:25;101142.47;;;47.26;19.18
8575;BME280;4325;42.520;27.448;2023-09-19T12:37:06;101152.72;;;47.58;19.23
8575;BME280;4325;42.520;27.448;2023-09-19T12:39:39;101136.97;;;47.70;19.18
8575;BME280;4325;42.520;27.448;2023-09-19T12:42:09;101132.75;;;47.77;19.18
8575;BME280;4325;42.520;27.448;2023-09-19T12:44:41;101136.38;;;47.66;18.85
8575;BME280;4325;42.520;27.448;2023-09-19T12:47:13;101137.16;;;47.19;19.21
8575;BME280;4325;42.520;27.448;2023-09-19T12:50:06;101131.59;;;45.72;20.40
8575;BME280;4325;42.520;27.448;2023-09-19T12:52:39;101129.00;;;44.60;21.28
8575;BME280;4325;42.520;27.448;2023-09-19T12:55:08;101135.06;;;43.62;22.31
8575;BME280;4325;42.520;27.448;2023-09-19T12:57:36;101124.03;;;43.61;22.61
8575;BME280;4325;42.520;27.448;2023-09-19T13:00:05;101134.59;;;43.87;22.29
8575;BME280;4325;42.520;27.448;2023-09-19T13:02:36;101129.94;;;45.16;21.62
8575;BME280;4325;42.520;27.448;2023-09-19T13:05:03;101133.94;;;45.18;21.05
8575;BME280;4325;42.520;27.448;2023-09-19T13:07:42;101127.09;;;45.51;21.12
8575;BME280;4325;42.520;27.448;2023-09-19T13:10:14;101127.97;;;45.77;20.77
8575;BME280;4325;42.520;27.448;2023-09-19T13:12:43;101122.63;;;45.70;20.69
8575;BME280;4325;42.520;27.448;2023-09-19T13:15:14;101120.88;;;45.23;21.28
8575;BME280;4325;42.520;27.448;2023-09-19T13:17:45;101130.16;;;45.47;20.81
8575;BME280;4325;42.520;27.448;2023-09-19T13:20:23;101130.22;;;43.92;22.16